Time;durP1;ratioP1;P1;durP2;ratioP2;P2;SDS_P1;SDS_P2;PMS_P1;PMS_P2;Temp;Humidity;BMP_temperature;BMP_pressure;BME280_temperature;BME280_humidity;BME280_pressure;Samples;Min_cycle;Max_cycle;Signal;HPM_P1;HPM_P2
2022/06/11 00:01:40;;;;;;;1.87;1.60;;;20.10;99.90;;;;;;5027299;28;20458;-82
2022/06/11 00:04:11;;;;;;;3.00;1.90;;;20.00;99.90;;;;;;5033362;28;20567;-81
2022/06/11 00:06:43;;;;;;;2.17;1.67;;;20.00;99.90;;;;;;5029185;28;20444;-81
2022/06/11 00:09:12;;;;;;;2.47;2.03;;;19.90;99.90;;;;;;5024454;28;20449;-82
2022/06/11 00:11:42;;;;;;;2.70;1.87;;;19.90;99.90;;;;;;5028558;28;20441;-82
2022/06/11 00:14:12;;;;;;;2.57;2.00;;;19.80;99.90;;;;;;5016559;28;20479;-81
2022/06/11 00:16:41;;;;;;;2.47;1.97;;;19.80;99.90;;;;;;5032050;28;20456;-81
2022/06/11 00:19:10;;;;;;;2.43;1.90;;;19.90;99.90;;;;;;5032274;28;20502;-82
2022/06/11 00:21:41;;;;;;;4.10;2.23;;;19.90;99.90;;;;;;5032631;28;20457;-82
2022/06/11 00:24:09;;;;;;;2.20;2.00;;;19.90;99.90;;;;;;5029747;28;20555;-81
2022/06/11 00:26:40;;;;;;;2.40;2.20;;;19.90;99.90;;;;;;5032690;28;21017;-82
2022/06/11 00:29:12;;;;;;;3.70;2.23;;;19.90;99.90;;;;;;5029545;28;20448;-82
2022/06/11 00:31:41;;;;;;;1.83;1.70;;;19.70;99.90;;;;;;5032205;28;20458;-81
2022/06/11 00:34:09;;;;;;;2.40;1.73;;;19.70;99.90;;;;;;5019553;28;20487;-82
2022/06/11 00:36:38;;;;;;;1.73;1.63;;;19.70;99.90;;;;;;5030911;28;20563;-81
2022/06/11 00:39:08;;;;;;;3.43;1.97;;;19.60;99.90;;;;;;5032475;28;20452;-81
2022/06/11 00:41:39;;;;;;;1.97;1.70;;;19.60;99.90;;;;;;5032848;28;20916;-82
2022/06/11 00:44:07;;;;;;;2.10;1.90;;;19.60;99.90;;;;;;5028385;28;20481;-82
2022/06/11 00:46:55;;;;;;;2.10;1.77;;;19.60;99.90;;;;;;5027406;28;20456;-81
2022/06/11 00:49:34;;;;;;;1.80;1.70;;;19.60;99.90;;;;;;5031835;28;20578;-81
2022/06/11 00:52:12;;;;;;;2.00;1.77;;;19.70;99.90;;;;;;5031717;28;20467;-82
2022/06/11 00:54:43;;;;;;;1.83;1.73;;;19.60;99.90;;;;;;5019881;28;20484;-82
2022/06/11 00:57:13;;;;;;;2.27;2.07;;;19.60;99.90;;;;;;5032694;28;20459;-81
2022/06/11 00:59:44;;;;;;;3.40;2.70;;;19.60;99.90;;;;;;5032811;28;20456;-81
2022/06/11 01:02:14;;;;;;;3.00;1.40;;;19.50;99.90;;;;;;5030261;28;20453;-81
2022/06/11 01:04:48;;;;;;;1.67;1.57;;;19.40;99.90;;;;;;5023217;28;20464;-81
2022/06/11 01:07:44;;;;;;;1.50;1.40;;;19.50;99.90;;;;;;5031444;28;21170;-82
2022/06/11 01:10:42;;;;;;;2.97;1.60;;;19.50;99.90;;;;;;5018749;28;20464;-81
2022/06/11 01:13:19;;;;;;;1.80;1.40;;;19.50;99.90;;;;;;5032772;28;21047;-82
2022/06/11 01:15:53;;;;;;;1.97;1.67;;;19.40;99.90;;;;;;5018577;28;20484;-83
2022/06/11 01:18:38;;;;;;;1.97;1.30;;;19.40;99.90;;;;;;5030843;28;20459;-81
2022/06/11 01:21:16;;;;;;;1.67;1.57;;;19.40;99.90;;;;;;5030633;28;20440;-81
2022/06/11 01:24:27;;;;;;;1.80;1.70;;;19.30;99.90;;;;;;5023769;28;20480;-82
2022/06/11 01:27:29;;;;;;;2.87;1.57;;;19.40;99.90;;;;;;5020919;28;20448;-82
2022/06/11 01:30:01;;;;;;;1.87;1.77;;;19.30;99.90;;;;;;5020097;28;20460;-81
2022/06/11 01:32:36;;;;;;;3.03;2.00;;;19.20;99.90;;;;;;5032079;28;20468;-82
2022/06/11 01:35:21;;;;;;;1.73;1.63;;;19.30;99.90;;;;;;5021204;28;20480;-80
2022/06/11 01:37:54;;;;;;;1.97;1.57;;;19.30;99.90;;;;;;5029414;28;21027;-82
2022/06/11 01:40:32;;;;;;;1.77;1.67;;;19.20;99.90;;;;;;5019539;28;20460;-81
2022/06/11 01:43:11;;;;;;;2.03;1.83;;;19.20;99.90;;;;;;5031429;28;20452;-82
2022/06/11 01:45:41;;;;;;;2.13;1.93;;;19.20;99.90;;;;;;5026335;28;20444;-82
2022/06/11 01:48:15;;;;;;;1.50;1.40;;;19.10;99.90;;;;;;5033111;28;20827;-82
2022/06/11 01:50:50;;;;;;;2.43;1.63;;;19.10;99.90;;;;;;5031719;28;20456;-82
2022/06/11 01:53:38;;;;;;;1.93;1.60;;;19.00;99.90;;;;;;5029213;28;20482;-83
2022/06/11 01:56:20;;;;;;;2.73;1.93;;;19.00;99.90;;;;;;5026833;28;20469;-82
2022/06/11 01:59:15;;;;;;;2.13;1.93;;;19.00;99.90;;;;;;5030868;28;20816;-81
2022/06/11 02:01:58;;;;;;;2.13;2.03;;;19.10;99.90;;;;;;5029182;28;20468;-81
2022/06/11 02:04:36;;;;;;;1.83;1.67;;;19.10;99.90;;;;;;5019447;28;20476;-82
2022/06/11 02:07:11;;;;;;;1.83;1.73;;;19.10;99.90;;;;;;5029363;28;20459;-81
2022/06/11 02:09:49;;;;;;;1.53;1.43;;;19.10;99.90;;;;;;5028770;28;20452;-81
2022/06/11 02:12:23;;;;;;;2.03;1.50;;;19.00;99.90;;;;;;5020152;28;20456;-82
2022/06/11 02:14:55;;;;;;;2.30;2.20;;;19.00;99.90;;;;;;5028878;28;20488;-82
2022/06/11 02:17:29;;;;;;;2.57;1.43;;;18.90;99.90;;;;;;5020905;28;20449;-81
2022/06/11 02:20:01;;;;;;;1.70;1.60;;;18.90;99.90;;;;;;5030837;28;20840;-83
2022/06/11 02:22:33;;;;;;;1.87;1.60;;;18.80;99.90;;;;;;5030593;28;20594;-82
2022/06/11 02:25:06;;;;;;;2.33;1.80;;;18.80;99.90;;;;;;5018506;28;20543;-85
2022/06/11 02:27:36;;;;;;;2.20;2.00;;;18.80;99.90;;;;;;5026006;28;20536;-81
2022/06/11 02:30:08;;;;;;;1.87;1.40;;;18.80;99.90;;;;;;5023614;28;20526;-82
2022/06/11 02:32:37;;;;;;;3.10;2.10;;;18.80;99.90;;;;;;5029108;28;20963;-81
2022/06/11 02:35:09;;;;;;;3.43;2.30;;;18.80;99.90;;;;;;5018896;28;20904;-82
2022/06/11 02:37:41;;;;;;;1.50;1.40;;;18.70;99.90;;;;;;5029230;28;20452;-81
2022/06/11 02:40:14;;;;;;;2.43;1.30;;;18.70;99.90;;;;;;5030650;28;20471;-81
2022/06/11 02:42:43;;;;;;;1.73;1.63;;;18.80;99.90;;;;;;5029876;28;20448;-82
2022/06/11 02:45:12;;;;;;;2.00;1.50;;;18.80;99.90;;;;;;5025220;28;20445;-81
2022/06/11 02:47:44;;;;;;;1.77;1.50;;;18.70;99.90;;;;;;5029820;28;20724;-81
2022/06/11 02:50:18;;;;;;;1.93;1.70;;;18.70;99.90;;;;;;5029547;28;20923;-81
2022/06/11 02:52:47;;;;;;;3.13;1.80;;;18.70;99.90;;;;;;5029500;28;20515;-81
2022/06/11 02:55:15;;;;;;;2.07;1.63;;;18.70;99.90;;;;;;5019706;28;20992;-81
2022/06/11 02:57:44;;;;;;;1.70;1.60;;;18.70;99.90;;;;;;5029104;28;20965;-81
2022/06/11 03:00:17;;;;;;;3.07;1.53;;;18.70;99.90;;;;;;5029762;28;20456;-81
2022/06/11 03:02:48;;;;;;;1.50;1.40;;;18.70;99.90;;;;;;5022207;28;20448;-81
2022/06/11 03:05:20;;;;;;;2.00;1.70;;;18.60;99.90;;;;;;5021215;28;20449;-81
2022/06/11 03:07:49;;;;;;;1.60;1.50;;;18.60;99.90;;;;;;5029852;28;20471;-82
2022/06/11 03:10:20;;;;;;;1.97;1.60;;;18.60;99.90;;;;;;5029063;28;20457;-81
2022/06/11 03:12:48;;;;;;;2.80;1.73;;;18.60;99.90;;;;;;5030114;28;20457;-81
2022/06/11 03:15:17;;;;;;;4.43;2.07;;;18.60;99.90;;;;;;5028730;28;20451;-81
2022/06/11 03:17:48;;;;;;;2.00;1.90;;;18.60;99.90;;;;;;5029001;28;20510;-81
2022/06/11 03:20:20;;;;;;;2.20;2.03;;;18.60;99.90;;;;;;5017504;28;20834;-81
2022/06/11 03:22:49;;;;;;;3.00;1.87;;;18.60;99.90;;;;;;5029676;28;20441;-81
2022/06/11 03:25:18;;;;;;;1.50;1.40;;;18.60;99.90;;;;;;5023042;28;20446;-81
2022/06/11 03:27:48;;;;;;;1.97;1.57;;;18.50;99.90;;;;;;5023944;28;20463;-81
2022/06/11 03:30:18;;;;;;;1.63;1.53;;;18.60;99.90;;;;;;5029548;28;20456;-81
2022/06/11 03:32:48;;;;;;;2.13;1.50;;;18.60;99.90;;;;;;5021195;28;20453;-81
2022/06/11 03:35:17;;;;;;;1.90;1.80;;;18.50;99.90;;;;;;5025090;28;20476;-82
2022/06/11 03:37:45;;;;;;;1.60;1.50;;;18.50;99.90;;;;;;5038123;28;20476;-82
2022/06/11 03:40:14;;;;;;;3.00;1.50;;;18.40;99.90;;;;;;5029638;28;20469;-83
2022/06/11 03:42:42;;;;;;;1.73;1.50;;;18.40;99.90;;;;;;5030252;28;20463;-83
2022/06/11 03:45:11;;;;;;;3.07;1.87;;;18.40;99.90;;;;;;5029568;28;20457;-81
2022/06/11 03:47:40;;;;;;;1.97;1.77;;;18.40;99.90;;;;;;5029667;28;21006;-81
2022/06/11 03:50:16;;;;;;;2.50;1.87;;;18.40;99.90;;;;;;5030044;28;20456;-81
2022/06/11 03:52:44;;;;;;;1.70;1.60;;;18.50;99.90;;;;;;5025315;28;20445;-81
2022/06/11 03:55:13;;;;;;;4.17;1.90;;;18.50;99.90;;;;;;5027169;28;20456;-82
2022/06/11 03:57:41;;;;;;;2.77;1.97;;;18.40;99.90;;;;;;5018086;28;20480;-81
2022/06/11 04:00:13;;;;;;;1.87;1.60;;;18.40;99.90;;;;;;5029643;28;20460;-81
2022/06/11 04:02:42;;;;;;;2.07;1.87;;;18.40;99.90;;;;;;5030251;28;20471;-81
2022/06/11 04:05:12;;;;;;;1.90;1.67;;;18.50;99.90;;;;;;5027971;28;20894;-82
2022/06/11 04:07:40;;;;;;;3.37;2.10;;;18.50;99.90;;;;;;5018766;28;20448;-82
2022/06/11 04:10:10;;;;;;;1.87;1.77;;;18.50;99.90;;;;;;5021678;28;20531;-81
2022/06/11 04:12:38;;;;;;;3.00;1.67;;;18.40;99.90;;;;;;5019267;28;20948;-82
2022/06/11 04:15:07;;;;;;;2.87;1.70;;;18.50;99.90;;;;;;5027674;28;20492;-81
2022/06/11 04:17:35;;;;;;;2.27;1.67;;;18.50;99.90;;;;;;5024928;28;20477;-81
2022/06/11 04:20:04;;;;;;;1.90;1.63;;;18.40;99.90;;;;;;5019596;28;21083;-81
2022/06/11 04:22:34;;;;;;;1.60;1.43;;;18.40;99.90;;;;;;5029390;28;20800;-81
2022/06/11 04:25:02;;;;;;;2.10;2.00;;;18.40;99.90;;;;;;5028530;28;20476;-81
2022/06/11 04:27:30;;;;;;;1.80;1.70;;;18.40;99.90;;;;;;5029047;28;21160;-81
2022/06/11 04:30:00;;;;;;;2.30;1.30;;;18.50;99.90;;;;;;5026532;28;20461;-81
2022/06/11 04:32:29;;;;;;;2.10;1.77;;;18.50;99.90;;;;;;5028359;28;20452;-82
2022/06/11 04:34:58;;;;;;;3.30;1.47;;;18.50;99.90;;;;;;5029542;28;20559;-82
2022/06/11 04:37:29;;;;;;;1.57;1.40;;;18.50;99.90;;;;;;5029908;28;20475;-81
2022/06/11 04:40:00;;;;;;;2.00;1.50;;;18.60;99.90;;;;;;5033511;28;20464;-81
2022/06/11 04:42:31;;;;;;;1.77;1.67;;;18.60;99.90;;;;;;5020541;28;20905;-81
2022/06/11 04:44:59;;;;;;;3.07;1.60;;;18.60;99.90;;;;;;5020460;28;20472;-81
2022/06/11 04:47:29;;;;;;;1.77;1.37;;;18.60;99.90;;;;;;5029954;28;20460;-81
2022/06/11 04:50:00;;;;;;;3.23;1.30;;;18.70;99.90;;;;;;5029189;28;20463;-81
2022/06/11 04:52:29;;;;;;;1.40;1.30;;;18.60;99.90;;;;;;5020450;28;20457;-82
2022/06/11 04:54:58;;;;;;;1.40;1.30;;;18.70;99.90;;;;;;5032805;28;20483;-81
2022/06/11 04:57:27;;;;;;;1.70;1.60;;;18.80;99.90;;;;;;5031012;28;21004;-81
2022/06/11 04:59:55;;;;;;;3.73;1.67;;;18.80;99.90;;;;;;5032284;28;20944;-83
2022/06/11 05:02:23;;;;;;;1.87;1.77;;;18.90;99.90;;;;;;5029188;28;20491;-81
2022/06/11 05:04:52;;;;;;;1.63;1.30;;;19.00;99.90;;;;;;5017845;28;20482;-81
2022/06/11 05:07:21;;;;;;;2.33;1.20;;;19.00;99.90;;;;;;5032514;28;20968;-81
2022/06/11 05:09:50;;;;;;;1.53;1.43;;;19.00;99.90;;;;;;5029818;28;20502;-81
2022/06/11 05:12:20;;;;;;;1.00;1.00;;;19.00;99.90;;;;;;5023859;28;20453;-81
2022/06/11 05:14:48;;;;;;;1.30;1.20;;;19.00;99.90;;;;;;5030392;28;20464;-82
2022/06/11 05:17:16;;;;;;;3.77;1.40;;;19.10;99.90;;;;;;5030037;28;20480;-82
2022/06/11 05:19:45;;;;;;;1.33;1.10;;;19.20;99.90;;;;;;5033077;28;20452;-82
2022/06/11 05:22:13;;;;;;;1.73;1.40;;;19.20;99.90;;;;;;5024093;28;20464;-81
2022/06/11 05:24:41;;;;;;;1.40;1.30;;;19.30;99.90;;;;;;5046171;28;20480;-81
2022/06/11 05:27:14;;;;;;;2.30;1.07;;;19.30;99.90;;;;;;5030198;28;20452;-81
2022/06/11 05:29:49;;;;;;;2.90;1.33;;;19.20;99.90;;;;;;5030917;28;20479;-82
2022/06/11 05:32:17;;;;;;;1.20;1.10;;;19.20;99.90;;;;;;5030165;28;20914;-81
2022/06/11 05:34:46;;;;;;;1.57;1.20;;;19.20;99.90;;;;;;5019252;28;20895;-81
2022/06/11 05:37:16;;;;;;;1.43;1.20;;;19.40;99.90;;;;;;5031574;28;20567;-81
2022/06/11 05:39:46;;;;;;;1.50;1.40;;;19.40;99.90;;;;;;5030533;28;20944;-82
2022/06/11 05:42:15;;;;;;;1.90;1.40;;;19.50;99.90;;;;;;5021030;28;20449;-82
2022/06/11 05:44:45;;;;;;;1.57;1.30;;;19.50;99.90;;;;;;5024341;28;20555;-82
2022/06/11 05:47:17;;;;;;;1.50;1.40;;;19.50;99.90;;;;;;5030942;28;20449;-82
2022/06/11 05:49:49;;;;;;;1.80;1.70;;;19.60;99.90;;;;;;5029889;28;20444;-82
2022/06/11 05:52:22;;;;;;;1.90;1.80;;;19.60;99.90;;;;;;5027900;28;20481;-81
2022/06/11 05:54:50;;;;;;;1.73;1.47;;;19.60;99.90;;;;;;5021591;28;20834;-81
2022/06/11 05:57:22;;;;;;;1.40;1.30;;;19.60;99.90;;;;;;5030837;28;20477;-81
2022/06/11 05:59:54;;;;;;;1.87;1.40;;;19.70;99.90;;;;;;5030291;28;20452;-82
2022/06/11 06:02:26;;;;;;;1.90;1.40;;;19.70;99.90;;;;;;5026813;28;20473;-81
2022/06/11 06:04:55;;;;;;;1.80;1.33;;;19.70;99.90;;;;;;5022776;28;20484;-82
2022/06/11 06:07:23;;;;;;;3.13;1.70;;;19.80;99.90;;;;;;5028731;28;20530;-81
2022/06/11 06:09:52;;;;;;;1.37;1.20;;;19.80;99.90;;;;;;5027052;28;20471;-82
2022/06/11 06:12:20;;;;;;;4.60;2.03;;;19.90;99.90;;;;;;5029642;28;20960;-81
2022/06/11 06:14:48;;;;;;;1.47;1.37;;;19.90;99.90;;;;;;5028568;28;20832;-81
2022/06/11 06:17:18;;;;;;;1.67;1.57;;;19.90;99.90;;;;;;5029527;28;20849;-82
2022/06/11 06:19:59;;;;;;;1.70;1.60;;;19.90;99.90;;;;;;5020487;28;21018;-81
2022/06/11 06:22:28;;;;;;;2.37;1.50;;;20.00;99.90;;;;;;5029006;28;21161;-81
2022/06/11 06:24:56;;;;;;;1.67;1.30;;;20.00;99.90;;;;;;5022483;28;20487;-81
2022/06/11 06:27:24;;;;;;;1.47;1.37;;;20.00;99.90;;;;;;5028266;28;20460;-81
2022/06/11 06:29:52;;;;;;;1.40;1.30;;;20.00;99.90;;;;;;5029125;28;20488;-82
2022/06/11 06:32:22;;;;;;;1.97;1.57;;;20.10;99.90;;;;;;5029071;28;21337;-82
2022/06/11 06:34:50;;;;;;;2.10;1.70;;;20.10;99.90;;;;;;5027418;28;20476;-82
2022/06/11 06:37:18;;;;;;;2.00;1.47;;;20.20;99.90;;;;;;5020598;28;20996;-81
2022/06/11 06:39:46;;;;;;;1.90;1.63;;;20.20;99.90;;;;;;5031390;28;20442;-81
2022/06/11 06:42:15;;;;;;;1.83;1.40;;;20.20;99.90;;;;;;5031031;28;20467;-81
2022/06/11 06:44:43;;;;;;;1.73;1.63;;;20.30;99.90;;;;;;5021749;28;21050;-81
2022/06/11 06:47:11;;;;;;;2.03;1.20;;;20.40;99.90;;;;;;5029914;28;20460;-82
2022/06/11 06:49:41;;;;;;;3.87;2.80;;;20.50;99.90;;;;;;5028821;28;21002;-81
2022/06/11 06:52:09;;;;;;;1.73;1.30;;;20.50;99.90;;;;;;5028773;28;20459;-83
2022/06/11 06:54:38;;;;;;;2.40;2.20;;;20.50;99.90;;;;;;5025165;28;20567;-81
2022/06/11 06:57:06;;;;;;;1.47;1.27;;;20.60;99.90;;;;;;5028578;28;20458;-81
2022/06/11 06:59:34;;;;;;;1.97;1.57;;;20.60;99.90;;;;;;5023937;28;20468;-81
2022/06/11 07:02:04;;;;;;;1.50;1.40;;;20.70;99.90;;;;;;5028831;28;20445;-81
2022/06/11 07:04:32;;;;;;;1.43;1.10;;;20.80;99.90;;;;;;5028810;28;20560;-82
2022/06/11 07:07:02;;;;;;;1.30;1.20;;;20.80;99.90;;;;;;5029234;28;20885;-81
2022/06/11 07:09:30;;;;;;;2.40;1.10;;;20.90;99.90;;;;;;5020858;28;20459;-81
2022/06/11 07:11:59;;;;;;;1.37;0.93;;;20.90;99.90;;;;;;5030097;28;20457;-82
2022/06/11 07:14:27;;;;;;;1.30;1.20;;;21.00;99.90;;;;;;5028125;28;20490;-81
2022/06/11 07:16:59;;;;;;;1.33;1.23;;;21.10;99.90;;;;;;5026242;28;20459;-82
2022/06/11 07:19:32;;;;;;;1.80;1.20;;;21.10;99.90;;;;;;5028508;28;20542;-82
2022/06/11 07:22:08;;;;;;;1.53;1.43;;;21.50;99.90;;;;;;5016440;28;20478;-81
2022/06/11 07:24:41;;;;;;;1.77;1.53;;;21.30;99.90;;;;;;5028874;28;20476;-81
2022/06/11 07:27:14;;;;;;;1.67;1.10;;;21.30;99.90;;;;;;5029061;28;20498;-82
2022/06/11 07:29:48;;;;;;;1.90;1.57;;;21.30;99.90;;;;;;5028077;28;20551;-82
2022/06/11 07:32:19;;;;;;;3.47;1.17;;;21.40;99.90;;;;;;5028689;28;20452;-82
2022/06/11 07:34:48;;;;;;;1.23;1.13;;;21.50;99.90;;;;;;5027706;28;20484;-82
2022/06/11 07:37:19;;;;;;;2.70;1.60;;;21.50;99.90;;;;;;5028570;28;20459;-81
2022/06/11 07:39:47;;;;;;;1.50;1.10;;;21.60;99.90;;;;;;5016185;28;21000;-81
2022/06/11 07:42:15;;;;;;;1.73;1.07;;;21.60;99.90;;;;;;5028753;28;20450;-81
2022/06/11 07:44:43;;;;;;;1.23;1.10;;;21.70;99.90;;;;;;5028056;28;21001;-81
2022/06/11 07:47:12;;;;;;;1.53;1.33;;;21.70;99.90;;;;;;5028446;28;20452;-81
2022/06/11 07:49:40;;;;;;;2.00;1.17;;;21.80;99.90;;;;;;5028461;28;20514;-81
2022/06/11 07:52:08;;;;;;;1.50;1.27;;;21.80;99.90;;;;;;5024374;28;20475;-81
2022/06/11 07:54:38;;;;;;;2.37;1.60;;;21.90;99.90;;;;;;5028938;28;20479;-82
2022/06/11 07:57:06;;;;;;;1.20;1.10;;;21.90;99.90;;;;;;5030037;28;20460;-81
2022/06/11 07:59:36;;;;;;;2.30;1.27;;;21.90;99.90;;;;;;5028831;28;21122;-83
2022/06/11 08:02:05;;;;;;;3.47;1.30;;;21.90;99.90;;;;;;5015903;28;20452;-82
2022/06/11 08:04:34;;;;;;;2.57;1.03;;;21.90;99.90;;;;;;5028077;28;21296;-81
2022/06/11 08:07:02;;;;;;;1.33;1.00;;;22.00;99.90;;;;;;5021417;28;20995;-81
2022/06/11 08:09:30;;;;;;;1.20;1.10;;;22.10;99.90;;;;;;5017236;28;20827;-81
2022/06/11 08:12:01;;;;;;;3.27;1.30;;;22.10;99.90;;;;;;5029293;28;20960;-82
2022/06/11 08:14:29;;;;;;;1.93;1.27;;;22.20;99.90;;;;;;5031530;28;20471;-82
2022/06/11 08:16:57;;;;;;;1.57;1.30;;;22.20;99.90;;;;;;5031722;28;20475;-81
2022/06/11 08:19:25;;;;;;;2.37;1.43;;;22.20;99.90;;;;;;5023675;28;20538;-81
2022/06/11 08:21:54;;;;;;;2.33;1.10;;;22.30;99.90;;;;;;5030206;28;20463;-82
2022/06/11 08:24:22;;;;;;;1.40;1.30;;;22.30;99.90;;;;;;5029215;28;20511;-82
2022/06/11 08:26:51;;;;;;;2.27;1.00;;;22.40;99.90;;;;;;5029202;28;20459;-82
2022/06/11 08:29:20;;;;;;;2.37;1.13;;;22.40;99.90;;;;;;5031093;28;20468;-81
2022/06/11 08:31:48;;;;;;;2.63;1.23;;;22.40;99.90;;;;;;5032887;28;20464;-81
2022/06/11 08:34:17;;;;;;;1.60;1.17;;;22.40;99.90;;;;;;5032215;28;21044;-81
2022/06/11 08:36:45;;;;;;;1.70;1.60;;;22.50;99.90;;;;;;5032820;28;20464;-82
2022/06/11 08:39:13;;;;;;;3.57;1.23;;;22.50;99.90;;;;;;5030523;28;20844;-81
2022/06/11 08:41:41;;;;;;;1.93;1.00;;;22.60;99.90;;;;;;5017365;28;20468;-81
2022/06/11 08:44:12;;;;;;;2.00;1.13;;;22.70;99.90;;;;;;5029631;28;20483;-82
2022/06/11 08:46:46;;;;;;;3.47;1.27;;;22.70;99.90;;;;;;5023156;28;20458;-82
2022/06/11 08:49:22;;;;;;;2.70;1.10;;;22.80;99.90;;;;;;5032978;28;20475;-82
2022/06/11 08:51:56;;;;;;;1.33;1.20;;;22.80;99.90;;;;;;5024472;28;20521;-82
2022/06/11 08:54:29;;;;;;;2.53;1.10;;;22.90;99.90;;;;;;5029505;28;20479;-81
2022/06/11 08:57:02;;;;;;;1.80;1.27;;;23.00;99.90;;;;;;5031577;28;20463;-81
2022/06/11 08:59:48;;;;;;;2.30;1.50;;;23.00;99.90;;;;;;5024580;28;20475;-81
2022/06/11 09:02:34;;;;;;;2.07;1.20;;;23.00;99.90;;;;;;5031017;28;20491;-82
2022/06/11 09:05:29;;;;;;;1.73;1.20;;;23.00;99.90;;;;;;5020536;28;20483;-81
2022/06/11 09:08:08;;;;;;;1.43;1.20;;;23.10;99.90;;;;;;5033152;28;20451;-81
2022/06/11 09:10:51;;;;;;;1.83;1.10;;;23.10;99.90;;;;;;5029767;28;20448;-81
2022/06/11 09:13:39;;;;;;;2.07;1.20;;;23.10;99.90;;;;;;5031772;28;20476;-82
2022/06/11 09:16:18;;;;;;;1.20;1.10;;;23.10;99.90;;;;;;5030058;28;20464;-81
2022/06/11 09:19:12;;;;;;;1.43;1.33;;;23.20;99.90;;;;;;5031439;28;20467;-81
2022/06/11 09:21:50;;;;;;;2.50;1.50;;;23.30;99.90;;;;;;5028447;28;20464;-82
2022/06/11 09:24:41;;;;;;;1.87;1.10;;;23.40;99.90;;;;;;5023539;28;20480;-81
2022/06/11 09:27:17;;;;;;;2.57;1.27;;;23.50;99.90;;;;;;5031030;28;20951;-81
2022/06/11 09:29:52;;;;;;;2.03;1.10;;;23.40;99.90;;;;;;5032120;28;20510;-81
2022/06/11 09:32:27;;;;;;;1.07;1.03;;;23.50;99.90;;;;;;5015929;28;21085;-81
2022/06/11 09:35:04;;;;;;;2.63;1.30;;;23.60;99.90;;;;;;5025809;28;20486;-81
2022/06/11 09:37:41;;;;;;;2.93;1.13;;;23.70;99.90;;;;;;5031023;28;20456;-81
2022/06/11 09:40:19;;;;;;;1.17;1.10;;;23.70;99.90;;;;;;5029483;28;20534;-81
2022/06/11 09:43:00;;;;;;;1.30;1.03;;;23.70;99.90;;;;;;5025089;28;20456;-81
2022/06/11 09:45:34;;;;;;;1.13;1.07;;;23.60;99.90;;;;;;5030256;28;20518;-82
2022/06/11 09:48:23;;;;;;;1.40;1.30;;;23.70;99.90;;;;;;5030316;28;20514;-81
2022/06/11 09:50:58;;;;;;;1.27;1.17;;;23.60;99.90;;;;;;5026366;28;21090;-82
2022/06/11 09:53:41;;;;;;;1.33;1.23;;;23.50;99.90;;;;;;5019878;28;20512;-82
2022/06/11 09:56:18;;;;;;;1.10;1.00;;;23.60;99.90;;;;;;5016349;28;20460;-82
2022/06/11 09:58:56;;;;;;;1.23;1.13;;;23.60;99.90;;;;;;5030524;28;20551;-81
2022/06/11 10:01:31;;;;;;;3.13;1.23;;;23.60;99.90;;;;;;5021232;28;20457;-81
2022/06/11 10:04:05;;;;;;;1.30;1.20;;;23.60;99.90;;;;;;5027475;28;20557;-82
2022/06/11 10:06:40;;;;;;;3.40;1.23;;;23.70;99.90;;;;;;5024221;28;21120;-81
2022/06/11 10:09:16;;;;;;;1.57;1.10;;;23.80;99.90;;;;;;5027827;28;20444;-81
2022/06/11 10:11:49;;;;;;;1.63;1.20;;;23.80;99.90;;;;;;5020907;28;20468;-81
2022/06/11 10:14:32;;;;;;;1.87;1.17;;;23.80;99.90;;;;;;5029323;28;20476;-81
2022/06/11 10:17:09;;;;;;;1.93;1.20;;;23.80;99.90;;;;;;5029566;28;20525;-81
2022/06/11 10:19:45;;;;;;;1.67;1.20;;;23.90;99.90;;;;;;5030078;28;20850;-80
2022/06/11 10:22:25;;;;;;;1.10;1.00;;;24.00;99.90;;;;;;5030398;28;20518;-81
2022/06/11 10:25:05;;;;;;;1.20;1.10;;;24.00;99.90;;;;;;5028052;28;20471;-82
2022/06/11 10:27:38;;;;;;;1.53;1.17;;;24.10;99.90;;;;;;5029776;28;20457;-82
2022/06/11 10:30:19;;;;;;;2.90;1.60;;;24.20;99.90;;;;;;5029700;28;20468;-81
2022/06/11 10:32:51;;;;;;;3.60;1.20;;;24.20;99.90;;;;;;5027927;28;20456;-81
2022/06/11 10:35:23;;;;;;;1.20;1.10;;;24.10;99.90;;;;;;5027982;28;20460;-81
2022/06/11 10:38:01;;;;;;;1.40;1.30;;;24.20;99.90;;;;;;5029748;28;20448;-81
2022/06/11 10:40:34;;;;;;;1.63;1.10;;;24.20;99.90;;;;;;5026512;28;20502;-80
2022/06/11 10:43:11;;;;;;;2.47;1.30;;;24.30;99.90;;;;;;5021158;28;20820;-81
2022/06/11 10:45:40;;;;;;;1.33;1.10;;;24.20;99.90;;;;;;5028200;28;20536;-81
2022/06/11 10:48:16;;;;;;;1.90;1.53;;;24.30;99.90;;;;;;5020503;28;20461;-81
2022/06/11 10:50:45;;;;;;;2.40;1.73;;;24.20;99.90;;;;;;5025428;28;20459;-82
2022/06/11 10:53:20;;;;;;;2.03;1.40;;;24.30;99.90;;;;;;5029691;28;20474;-81
2022/06/11 10:55:51;;;;;;;1.30;1.20;;;24.30;99.90;;;;;;5026663;28;20452;-82
2022/06/11 10:58:27;;;;;;;1.13;1.00;;;24.40;99.90;;;;;;5019170;28;20457;-81
2022/06/11 11:00:59;;;;;;;3.13;1.30;;;24.40;99.90;;;;;;5016158;28;20822;-81
2022/06/11 11:03:36;;;;;;;1.00;0.90;;;24.40;99.90;;;;;;5028408;28;20979;-81
2022/06/11 11:06:06;;;;;;;1.37;1.30;;;24.40;99.90;;;;;;5027691;28;20534;-80
2022/06/11 11:08:37;;;;;;;1.33;1.00;;;24.40;99.90;;;;;;5029301;28;20527;-82
2022/06/11 11:11:10;;;;;;;1.47;0.90;;;24.30;99.90;;;;;;5020317;28;20442;-81
2022/06/11 11:13:41;;;;;;;1.47;1.37;;;24.40;99.90;;;;;;5021495;28;20468;-82
2022/06/11 11:16:19;;;;;;;1.53;1.20;;;24.40;99.90;;;;;;5027269;28;20451;-81
2022/06/11 11:19:02;;;;;;;2.43;1.20;;;24.40;99.90;;;;;;5028986;28;20460;-81
2022/06/11 11:21:34;;;;;;;1.97;1.30;;;24.40;99.90;;;;;;5029237;28;20464;-81
2022/06/11 11:24:11;;;;;;;1.33;1.20;;;24.40;99.90;;;;;;5015395;28;20469;-81
2022/06/11 11:26:51;;;;;;;1.20;1.10;;;24.30;99.90;;;;;;5028409;28;20904;-81
2022/06/11 11:29:24;;;;;;;1.83;1.17;;;24.30;99.90;;;;;;5028247;28;20823;-81
2022/06/11 11:31:55;;;;;;;1.00;1.00;;;24.30;99.90;;;;;;5027617;28;20457;-81
2022/06/11 11:34:26;;;;;;;1.13;1.03;;;24.40;99.90;;;;;;5027682;28;20468;-81
2022/06/11 11:36:59;;;;;;;2.07;1.53;;;24.50;99.90;;;;;;5027734;28;20436;-82
2022/06/11 11:39:32;;;;;;;2.33;1.10;;;24.50;99.90;;;;;;5028415;28;20448;-81
2022/06/11 11:42:12;;;;;;;1.33;1.23;;;24.60;99.90;;;;;;5021381;28;20503;-81
2022/06/11 11:44:48;;;;;;;1.60;1.17;;;24.70;99.90;;;;;;5024376;28;20972;-82
2022/06/11 11:47:21;;;;;;;1.77;1.00;;;24.70;99.90;;;;;;5030549;28;21002;-81
2022/06/11 11:50:03;;;;;;;1.10;1.00;;;24.70;99.90;;;;;;5022606;28;20466;-81
2022/06/11 11:52:33;;;;;;;1.90;1.20;;;24.90;99.90;;;;;;5031918;28;20451;-82
2022/06/11 11:55:11;;;;;;;1.67;1.00;;;24.90;99.90;;;;;;5018742;28;20894;-81
2022/06/11 11:57:40;;;;;;;2.30;1.07;;;24.90;99.90;;;;;;5032415;28;20456;-79
2022/06/11 12:00:26;;;;;;;2.27;1.30;;;24.90;99.90;;;;;;5031963;28;20815;-78
2022/06/11 12:02:57;;;;;;;1.47;1.37;;;25.00;99.90;;;;;;5020101;28;20468;-79
2022/06/11 12:05:30;;;;;;;1.00;0.90;;;25.00;99.90;;;;;;5029088;28;20463;-78
2022/06/11 12:08:00;;;;;;;3.37;1.50;;;25.00;99.90;;;;;;5031478;28;20995;-79
2022/06/11 12:10:35;;;;;;;1.20;1.03;;;25.10;99.90;;;;;;5030130;28;20452;-80
2022/06/11 12:13:04;;;;;;;1.23;1.13;;;25.10;99.90;;;;;;5028020;28;20452;-77
2022/06/11 12:15:34;;;;;;;1.10;1.10;;;25.10;99.90;;;;;;5031075;28;20460;-79
2022/06/11 12:18:07;;;;;;;0.90;0.90;;;25.10;99.90;;;;;;5030952;28;20451;-79
2022/06/11 12:20:42;;;;;;;1.30;1.20;;;25.20;99.90;;;;;;5031879;28;20551;-79
2022/06/11 12:23:25;;;;;;;1.67;1.17;;;25.10;99.90;;;;;;5021569;28;20803;-78
2022/06/11 12:25:59;;;;;;;3.13;1.17;;;25.20;99.90;;;;;;5017332;28;20448;-78
2022/06/11 12:28:34;;;;;;;1.33;1.17;;;25.20;99.90;;;;;;5031768;28;20965;-79
2022/06/11 12:31:02;;;;;;;1.70;1.00;;;25.10;99.90;;;;;;5031690;28;20518;-79
2022/06/11 12:33:31;;;;;;;3.50;1.20;;;25.20;99.90;;;;;;5031241;28;20487;-79
2022/06/11 12:36:07;;;;;;;2.87;1.40;;;25.20;99.90;;;;;;5030844;28;20452;-79
2022/06/11 12:38:47;;;;;;;1.20;1.20;;;25.20;99.90;;;;;;5031308;28;21089;-79
2022/06/11 12:41:37;;;;;;;1.37;0.90;;;25.30;99.90;;;;;;5025983;28;20491;-79
2022/06/11 12:44:28;;;;;;;1.40;1.30;;;25.30;99.90;;;;;;5021295;28;21029;-79
2022/06/11 12:47:04;;;;;;;1.67;1.10;;;25.30;99.90;;;;;;5031151;28;20936;-79
2022/06/11 12:49:37;;;;;;;1.53;1.10;;;25.30;99.90;;;;;;5031639;28;20799;-79
2022/06/11 12:52:14;;;;;;;1.77;1.40;;;25.30;99.90;;;;;;5031035;28;21134;-80
2022/06/11 12:55:01;;;;;;;1.03;1.03;;;25.30;99.90;;;;;;5028569;28;21014;-79
2022/06/11 12:57:44;;;;;;;2.27;1.10;;;25.30;99.90;;;;;;5020867;28;20436;-79
2022/06/11 13:00:33;;;;;;;1.20;1.03;;;25.30;99.90;;;;;;5031028;28;21043;-79
2022/06/11 13:03:19;;;;;;;1.10;1.10;;;25.30;99.90;;;;;;5026746;28;20445;-79
2022/06/11 13:06:08;;;;;;;1.40;1.30;;;25.30;99.90;;;;;;5029306;28;20952;-79
2022/06/11 13:08:48;;;;;;;2.13;1.10;;;25.40;99.90;;;;;;5018584;28;21232;-79
2022/06/11 13:11:26;;;;;;;1.30;1.20;;;25.40;99.90;;;;;;5031388;28;20821;-79
2022/06/11 13:14:17;;;;;;;1.47;1.37;;;25.50;99.90;;;;;;5021724;28;20485;-79
2022/06/11 13:17:00;;;;;;;1.27;1.17;;;25.60;99.90;;;;;;5031478;28;20448;-79
2022/06/11 13:19:42;;;;;;;1.57;1.10;;;25.60;99.90;;;;;;5031956;28;20460;-79